createdAt,value
2018-09-23T00:02:18.391Z,3.47
2018-09-23T00:04:47.286Z,3.83
2018-09-23T00:07:16.236Z,3.77
2018-09-23T00:09:45.079Z,3.70
2018-09-23T00:12:13.939Z,3.60
2018-09-23T00:14:42.882Z,3.87
2018-09-23T00:17:11.813Z,3.87
2018-09-23T00:19:40.659Z,4.10
2018-09-23T00:22:09.580Z,4.10
2018-09-23T00:24:38.453Z,3.80
2018-09-23T00:27:07.377Z,4.37
2018-09-23T00:29:41.496Z,3.40
2018-09-23T00:32:10.419Z,3.87
2018-09-23T00:34:39.341Z,3.73
2018-09-23T00:37:08.464Z,4.20
2018-09-23T00:39:37.325Z,3.67
2018-09-23T00:42:06.241Z,4.50
2018-09-23T00:44:35.081Z,4.20
2018-09-23T00:47:03.969Z,4.00
2018-09-23T00:49:32.881Z,3.90
2018-09-23T00:52:01.705Z,4.57
2018-09-23T00:54:30.714Z,4.40
2018-09-23T00:56:59.582Z,4.60
2018-09-23T00:59:28.525Z,4.30
2018-09-23T01:01:57.407Z,4.70
2018-09-23T01:04:26.320Z,4.27
2018-09-23T01:06:55.200Z,4.23
2018-09-23T01:09:24.085Z,4.20
2018-09-23T01:11:52.964Z,4.10
2018-09-23T01:14:21.852Z,3.83
2018-09-23T01:16:50.748Z,4.50
2018-09-23T01:19:19.622Z,4.80
2018-09-23T01:21:48.874Z,4.10
2018-09-23T01:24:17.792Z,4.93
2018-09-23T01:26:46.720Z,4.17
2018-09-23T01:29:15.569Z,4.47
2018-09-23T01:31:44.481Z,4.33
2018-09-23T01:34:13.378Z,4.03
2018-09-23T01:36:42.303Z,4.70
2018-09-23T01:39:11.181Z,4.90
2018-09-23T01:41:40.109Z,4.27
2018-09-23T01:44:09.022Z,5.27
2018-09-23T01:46:37.936Z,4.20
2018-09-23T01:49:06.852Z,4.67
2018-09-23T01:51:35.728Z,4.63
2018-09-23T01:54:04.607Z,4.57
2018-09-23T01:56:33.476Z,4.47
2018-09-23T01:59:02.319Z,5.47
2018-09-23T02:01:31.228Z,4.53
2018-09-23T02:04:00.117Z,4.83
2018-09-23T02:06:28.996Z,4.27
2018-09-23T02:08:57.860Z,5.20
2018-09-23T02:11:26.754Z,4.70
2018-09-23T02:13:55.651Z,4.73
2018-09-23T02:16:24.502Z,4.43
2018-09-23T02:18:53.347Z,4.93
2018-09-23T02:21:22.349Z,4.70
2018-09-23T02:23:51.194Z,5.07
2018-09-23T02:26:20.086Z,4.57
2018-09-23T02:28:49.186Z,4.70
2018-09-23T02:31:18.201Z,4.87
2018-09-23T02:33:47.164Z,4.50
2018-09-23T02:36:16.041Z,5.43
2018-09-23T02:38:44.955Z,5.80
2018-09-23T02:41:13.878Z,5.23
2018-09-23T02:43:42.780Z,4.90
2018-09-23T02:46:11.628Z,6.00
2018-09-23T02:48:40.515Z,5.80
2018-09-23T02:51:09.385Z,6.30
2018-09-23T02:53:38.379Z,6.00
2018-09-23T02:56:07.303Z,6.80
2018-09-23T02:58:36.227Z,6.80
2018-09-23T03:01:05.119Z,7.63
2018-09-23T03:03:34.009Z,7.57
2018-09-23T03:06:02.979Z,8.07
2018-09-23T03:08:31.905Z,8.13
2018-09-23T03:11:00.768Z,8.37
2018-09-23T03:13:29.644Z,8.03
2018-09-23T03:15:58.552Z,8.60
2018-09-23T03:18:27.396Z,9.13
2018-09-23T03:20:56.289Z,8.03
2018-09-23T03:23:25.190Z,8.50
2018-09-23T03:25:54.031Z,8.17
2018-09-23T03:28:22.900Z,9.07
2018-09-23T03:30:51.803Z,9.70
2018-09-23T03:33:20.703Z,8.83
2018-09-23T03:35:49.616Z,8.80
2018-09-23T03:38:18.517Z,9.47
2018-09-23T03:40:47.428Z,10.70
2018-09-23T03:43:16.267Z,9.50
2018-09-23T03:45:45.216Z,9.60
2018-09-23T03:48:14.044Z,9.37
2018-09-23T03:50:43.001Z,9.87
2018-09-23T03:53:11.898Z,9.57
2018-09-23T03:55:40.825Z,9.40
2018-09-23T03:58:09.809Z,10.13
2018-09-23T04:00:38.852Z,8.90
2018-09-23T04:03:07.996Z,9.40
2018-09-23T04:05:36.912Z,10.33
2018-09-23T04:08:06.171Z,10.03
2018-09-23T04:10:35.096Z,10.13
2018-09-23T04:13:04.045Z,10.60
2018-09-23T04:15:32.936Z,10.40
2018-09-23T04:18:01.775Z,10.77
2018-09-23T04:20:30.673Z,11.30
2018-09-23T04:22:59.579Z,10.10
2018-09-23T04:25:28.444Z,11.87
2018-09-23T04:27:57.443Z,10.03
2018-09-23T04:30:26.291Z,10.07
2018-09-23T04:32:55.157Z,10.00
2018-09-23T04:35:24.038Z,9.70
2018-09-23T04:37:53.065Z,9.20
2018-09-23T04:40:22.013Z,9.53
2018-09-23T04:42:50.862Z,9.80
2018-09-23T04:45:19.749Z,8.90
2018-09-23T04:47:48.672Z,9.43
2018-09-23T04:50:17.532Z,9.40
2018-09-23T04:52:46.569Z,9.30
2018-09-23T04:55:15.436Z,9.10
2018-09-23T04:57:44.331Z,9.37
2018-09-23T05:00:13.204Z,9.33
2018-09-23T05:02:42.154Z,9.17
2018-09-23T05:05:11.038Z,8.70
2018-09-23T05:07:39.926Z,9.10
2018-09-23T05:10:08.799Z,8.27
2018-09-23T05:12:37.663Z,8.07
2018-09-23T05:15:07.110Z,8.77
2018-09-23T05:17:36.070Z,8.63
2018-09-23T05:20:05.384Z,9.07
2018-09-23T05:22:34.293Z,7.90
2018-09-23T05:25:04.020Z,8.23
2018-09-23T05:27:32.907Z,8.47
2018-09-23T05:30:01.820Z,8.90
2018-09-23T05:32:30.747Z,8.20
2018-09-23T05:34:59.660Z,8.13
2018-09-23T05:37:28.559Z,8.40
2018-09-23T05:39:57.437Z,8.27
2018-09-23T05:42:26.483Z,8.20
2018-09-23T05:44:55.380Z,8.50
2018-09-23T05:47:24.298Z,7.80
2018-09-23T05:49:53.196Z,7.57
2018-09-23T05:52:22.096Z,7.90
2018-09-23T05:54:50.991Z,6.93
2018-09-23T05:57:19.889Z,7.23
2018-09-23T05:59:48.822Z,6.80
2018-09-23T06:02:17.761Z,7.00
2018-09-23T06:04:46.615Z,6.37
2018-09-23T06:07:15.586Z,7.47
2018-09-23T06:09:44.473Z,7.37
2018-09-23T06:12:13.352Z,8.10
2018-09-23T06:14:42.272Z,7.50
2018-09-23T06:17:11.196Z,6.80
2018-09-23T06:19:40.077Z,7.57
2018-09-23T06:22:08.927Z,7.40
2018-09-23T06:24:37.838Z,6.00
2018-09-23T06:27:06.692Z,7.90
2018-09-23T06:29:35.543Z,7.13
2018-09-23T06:32:04.444Z,7.00
2018-09-23T06:34:33.318Z,6.47
2018-09-23T06:37:02.300Z,6.53
2018-09-23T06:39:31.204Z,6.53
2018-09-23T06:42:00.051Z,5.97
2018-09-23T06:44:30.255Z,6.13
2018-09-23T06:46:59.987Z,6.37
2018-09-23T06:49:29.193Z,6.37
2018-09-23T06:51:58.077Z,6.03
2018-09-23T06:54:26.956Z,8.30
2018-09-23T06:56:55.936Z,5.43
2018-09-23T06:59:24.834Z,5.90
2018-09-23T07:01:53.655Z,6.30
2018-09-23T07:04:22.565Z,6.50
2018-09-23T07:06:51.425Z,5.27
2018-09-23T07:09:20.256Z,5.60
2018-09-23T07:11:49.169Z,5.50
2018-09-23T07:14:18.056Z,6.10
2018-09-23T07:16:46.949Z,5.90
2018-09-23T07:19:15.844Z,5.40
2018-09-23T07:21:44.712Z,4.67
2018-09-23T07:24:13.643Z,5.53
2018-09-23T07:26:42.502Z,5.10
2018-09-23T07:29:11.589Z,5.33
2018-09-23T07:31:40.458Z,5.27
2018-09-23T07:34:09.335Z,5.07
2018-09-23T07:36:38.272Z,5.73
2018-09-23T07:39:08.827Z,10.70
2018-09-23T07:41:37.747Z,8.80
2018-09-23T07:44:07.257Z,4.53
2018-09-23T07:46:36.111Z,4.33
2018-09-23T07:49:05.001Z,3.80
2018-09-23T07:51:33.887Z,4.33
2018-09-23T07:54:02.825Z,4.43
2018-09-23T07:56:31.812Z,4.57
2018-09-23T07:59:00.671Z,4.63
2018-09-23T08:01:29.491Z,4.20
2018-09-23T08:03:58.504Z,4.00
2018-09-23T08:06:27.387Z,3.73
2018-09-23T08:08:56.289Z,3.70
2018-09-23T08:11:25.213Z,4.23
2018-09-23T08:13:54.235Z,3.20
2018-09-23T08:16:23.036Z,3.40
2018-09-23T08:18:51.937Z,3.40
2018-09-23T08:21:20.843Z,3.60
2018-09-23T08:23:49.693Z,3.40
2018-09-23T08:26:18.632Z,3.97
2018-09-23T08:28:47.486Z,3.37
2018-09-23T08:31:16.368Z,3.30
2018-09-23T08:33:45.223Z,3.03
2018-09-23T08:36:14.072Z,3.20
2018-09-23T08:38:43.300Z,3.30
2018-09-23T08:41:12.195Z,2.90
2018-09-23T08:43:41.082Z,2.90
2018-09-23T08:46:09.956Z,3.00
2018-09-23T08:48:38.918Z,2.93
2018-09-23T08:51:08.181Z,2.27
2018-09-23T08:53:37.059Z,1.93
2018-09-23T08:56:06.082Z,2.50
2018-09-23T08:58:35.303Z,2.40
2018-09-23T09:01:04.147Z,2.30
2018-09-23T09:03:33.066Z,2.43
2018-09-23T09:06:01.986Z,2.60
2018-09-23T09:08:30.905Z,2.10
2018-09-23T09:10:59.792Z,2.20
2018-09-23T09:13:28.698Z,2.50
2018-09-23T09:15:57.578Z,2.40
2018-09-23T09:18:26.539Z,2.20
2018-09-23T09:20:55.381Z,2.50
2018-09-23T09:23:24.211Z,2.70
2018-09-23T09:25:53.140Z,2.13
2018-09-23T09:28:22.024Z,1.90
2018-09-23T09:30:50.956Z,2.30
2018-09-23T09:33:19.963Z,2.90
2018-09-23T09:35:49.087Z,1.90
2018-09-23T09:38:18.013Z,2.00
2018-09-23T09:40:46.912Z,2.00
2018-09-23T09:43:15.837Z,7.70
2018-09-23T09:45:44.691Z,8.40
2018-09-23T09:48:13.597Z,1.70
2018-09-23T09:50:42.483Z,3.43
2018-09-23T09:53:11.390Z,2.70
2018-09-23T09:55:40.219Z,2.60
2018-09-23T09:58:09.075Z,2.53
2018-09-23T10:00:37.949Z,2.10
2018-09-23T10:03:07.533Z,2.50
2018-09-23T10:05:36.401Z,1.70
2018-09-23T10:08:05.259Z,2.07
2018-09-23T10:12:15.832Z,2.53
2018-09-23T10:14:44.758Z,2.20
2018-09-23T10:17:13.634Z,4.13
2018-09-23T10:19:42.627Z,2.27
2018-09-23T10:22:11.472Z,4.70
2018-09-23T10:24:40.360Z,2.50
2018-09-23T10:27:09.279Z,5.90
2018-09-23T10:29:38.332Z,3.20
2018-09-23T10:32:07.224Z,3.77
2018-09-23T10:34:36.178Z,5.40
2018-09-23T10:37:05.099Z,3.10
2018-09-23T10:39:34.115Z,2.97
2018-09-23T10:42:03.144Z,4.23
2018-09-23T10:44:32.016Z,3.20
2018-09-23T10:47:00.867Z,7.50
2018-09-23T10:49:29.748Z,2.30
2018-09-23T10:51:58.629Z,2.50
2018-09-23T10:54:27.497Z,2.43
2018-09-23T10:56:56.401Z,2.20
2018-09-23T10:59:25.253Z,2.93
2018-09-23T11:01:54.385Z,2.40
2018-09-23T11:04:23.309Z,2.00
2018-09-23T11:06:52.307Z,2.40
2018-09-23T11:09:21.246Z,2.53
2018-09-23T11:11:50.265Z,1.73
2018-09-23T11:14:19.521Z,1.50
2018-09-23T11:16:48.448Z,2.30
2018-09-23T11:19:17.350Z,2.30
2018-09-23T11:21:46.240Z,2.00
2018-09-23T11:24:15.077Z,2.20
2018-09-23T11:26:43.927Z,2.13
2018-09-23T11:29:12.755Z,1.67
2018-09-23T11:31:41.702Z,1.50
2018-09-23T11:34:10.642Z,1.70
2018-09-23T11:36:39.546Z,2.30
2018-09-23T11:39:10.615Z,1.83
2018-09-23T11:41:39.487Z,2.20
2018-09-23T11:44:08.628Z,2.60
2018-09-23T11:46:37.516Z,2.00
2018-09-23T11:49:06.601Z,2.10
2018-09-23T11:51:35.517Z,1.93
2018-09-23T11:54:04.442Z,2.40
2018-09-23T11:56:33.285Z,2.27
2018-09-23T11:59:02.223Z,2.30
2018-09-23T12:01:31.101Z,2.33
2018-09-23T12:04:00.021Z,2.40
2018-09-23T12:06:28.909Z,2.90
2018-09-23T12:08:57.834Z,2.63
2018-09-23T12:11:26.794Z,2.77
2018-09-23T12:13:55.707Z,3.10
2018-09-23T12:16:24.630Z,2.90
2018-09-23T12:18:53.538Z,2.80
2018-09-23T12:21:22.480Z,2.40
2018-09-23T12:23:51.383Z,3.00
2018-09-23T12:26:20.284Z,3.70
2018-09-23T12:28:49.166Z,3.10
2018-09-23T12:31:18.776Z,3.87
2018-09-23T12:33:47.933Z,3.50
2018-09-23T12:36:16.892Z,2.33
2018-09-23T12:38:45.821Z,2.83
2018-09-23T12:41:14.771Z,3.10
2018-09-23T12:43:43.679Z,2.83
2018-09-23T12:46:12.626Z,2.77
2018-09-23T12:48:41.471Z,2.83
2018-09-23T12:51:10.405Z,2.57
2018-09-23T12:53:39.316Z,2.47
2018-09-23T12:56:08.204Z,2.90
2018-09-23T12:58:37.107Z,2.83
2018-09-23T13:01:06.065Z,3.00
2018-09-23T13:03:34.993Z,2.30
2018-09-23T13:06:03.926Z,3.10
2018-09-23T13:08:32.846Z,2.90
2018-09-23T13:11:01.748Z,2.77
2018-09-23T13:13:30.665Z,2.70
2018-09-23T13:15:59.595Z,2.80
2018-09-23T13:18:28.445Z,3.80
2018-09-23T13:20:57.276Z,3.93
2018-09-23T13:23:26.166Z,3.67
2018-09-23T13:25:55.151Z,4.17
2018-09-23T13:28:24.055Z,3.27
2018-09-23T13:30:52.959Z,3.70
2018-09-23T13:33:21.916Z,3.27
2018-09-23T13:35:50.808Z,2.93
2018-09-23T13:38:19.666Z,3.83
2018-09-23T13:40:48.610Z,3.37
2018-09-23T13:43:17.450Z,3.20
2018-09-23T13:45:46.352Z,9.53
2018-09-23T13:48:15.275Z,4.00
2018-09-23T13:50:44.163Z,3.70
2018-09-23T13:53:13.051Z,4.30
2018-09-23T13:55:41.916Z,3.70
2018-09-23T13:58:10.844Z,5.00
2018-09-23T14:00:39.776Z,4.13
2018-09-23T14:03:08.892Z,4.63
2018-09-23T14:05:37.889Z,4.60
2018-09-23T14:08:06.759Z,4.07
2018-09-23T14:10:35.623Z,4.47
2018-09-23T14:13:04.851Z,4.30
2018-09-23T14:15:33.759Z,15.83
2018-09-23T14:18:02.657Z,7.20
2018-09-23T14:20:31.590Z,6.50
2018-09-23T14:23:00.513Z,5.50
2018-09-23T14:25:29.464Z,5.00
2018-09-23T14:27:58.389Z,4.70
2018-09-23T14:30:27.263Z,9.67
2018-09-23T14:32:56.197Z,8.77
2018-09-23T14:35:25.131Z,5.23
2018-09-23T14:37:53.988Z,3.67
2018-09-23T14:40:22.949Z,3.47
2018-09-23T14:42:51.860Z,3.30
2018-09-23T14:45:20.757Z,3.23
2018-09-23T14:47:49.717Z,3.40
2018-09-23T14:50:18.692Z,4.03
2018-09-23T14:52:47.510Z,3.80
2018-09-23T14:55:16.475Z,4.47
2018-09-23T14:57:45.199Z,4.07
2018-09-23T15:00:14.078Z,3.83
2018-09-23T15:02:42.935Z,3.90
2018-09-23T15:05:11.828Z,4.43
2018-09-23T15:07:40.679Z,3.50
2018-09-23T15:10:09.519Z,4.10
2018-09-23T15:12:38.427Z,3.97
2018-09-23T15:15:07.296Z,4.70
2018-09-23T15:17:36.143Z,4.60
2018-09-23T15:20:05.291Z,5.00
2018-09-23T15:22:34.195Z,5.53
2018-09-23T15:25:03.080Z,5.60
2018-09-23T15:27:31.903Z,5.40
2018-09-23T15:30:00.817Z,5.40
2018-09-23T15:32:29.676Z,5.50
2018-09-23T15:34:58.585Z,5.40
2018-09-23T15:37:27.419Z,5.90
2018-09-23T15:39:56.314Z,4.97
2018-09-23T15:42:25.213Z,5.20
2018-09-23T15:44:54.076Z,5.70
2018-09-23T15:47:22.926Z,5.43
2018-09-23T15:49:51.827Z,5.67
2018-09-23T15:52:20.691Z,6.00
2018-09-23T15:54:49.642Z,7.43
2018-09-23T15:57:18.512Z,6.00
2018-09-23T15:59:47.389Z,5.70
2018-09-23T16:02:16.234Z,4.60
2018-09-23T16:04:45.067Z,7.83
2018-09-23T16:07:13.952Z,5.43
2018-09-23T16:09:42.847Z,3.57
2018-09-23T16:12:11.777Z,3.30
2018-09-23T16:14:40.780Z,2.40
2018-09-23T16:17:09.700Z,3.10
2018-09-23T16:19:38.588Z,4.10
2018-09-23T16:22:07.460Z,3.33
2018-09-23T16:24:36.452Z,3.60
2018-09-23T16:27:05.337Z,3.20
2018-09-23T16:29:34.183Z,3.67
2018-09-23T16:32:03.218Z,4.20
2018-09-23T16:34:32.051Z,3.43
2018-09-23T16:37:00.973Z,4.17
2018-09-23T16:39:29.888Z,3.23
2018-09-23T16:41:58.747Z,4.13
2018-09-23T16:44:27.611Z,3.27
2018-09-23T16:46:56.528Z,2.67
2018-09-23T16:49:25.408Z,3.00
2018-09-23T16:51:54.285Z,3.90
2018-09-23T16:54:23.313Z,3.10
2018-09-23T16:56:52.177Z,3.50
2018-09-23T16:59:21.133Z,3.37
2018-09-23T17:01:50.060Z,3.20
2018-09-23T17:04:18.910Z,3.00
2018-09-23T17:06:47.954Z,2.23
2018-09-23T17:09:16.865Z,2.63
2018-09-23T17:11:45.739Z,3.00
2018-09-23T17:14:14.604Z,3.00
2018-09-23T17:16:43.527Z,3.00
2018-09-23T17:19:12.425Z,3.27
2018-09-23T17:21:41.296Z,2.90
2018-09-23T17:24:10.194Z,3.07
2018-09-23T17:26:39.081Z,3.40
2018-09-23T17:29:08.111Z,3.10
2018-09-23T17:31:36.984Z,3.50
2018-09-23T17:34:06.544Z,3.47
2018-09-23T17:36:35.408Z,2.80
2018-09-23T17:39:07.361Z,2.80
2018-09-23T17:41:36.260Z,5.57
2018-09-23T17:44:05.153Z,6.53
2018-09-23T17:46:34.138Z,10.47
2018-09-23T17:49:03.274Z,3.57
2018-09-23T17:51:32.483Z,2.80
2018-09-23T17:54:01.553Z,3.47
2018-09-23T17:56:30.472Z,2.90
2018-09-23T17:58:59.464Z,2.90
2018-09-23T18:01:28.403Z,2.87
2018-09-23T18:03:57.364Z,2.93
2018-09-23T18:06:26.251Z,2.80
2018-09-23T18:08:55.108Z,2.30
2018-09-23T18:11:23.988Z,2.57
2018-09-23T18:13:53.730Z,2.73
2018-09-23T18:16:22.588Z,2.67
2018-09-23T18:18:51.670Z,2.80
2018-09-23T18:21:20.622Z,2.40
2018-09-23T18:23:49.483Z,2.33
2018-09-23T18:26:18.364Z,3.10
2018-09-23T18:28:47.260Z,2.83
2018-09-23T18:31:16.114Z,2.90
2018-09-23T18:33:45.021Z,3.30
2018-09-23T18:36:13.934Z,2.90
2018-09-23T18:38:42.941Z,2.57
2018-09-23T18:41:11.854Z,2.80
2018-09-23T18:43:40.786Z,3.50
2018-09-23T18:46:09.639Z,2.73
2018-09-23T18:48:38.556Z,2.73
2018-09-23T18:51:07.476Z,25.20
2018-09-23T18:53:36.412Z,3.70
2018-09-23T18:56:05.314Z,5.00
2018-09-23T18:58:34.222Z,2.83
2018-09-23T19:01:03.121Z,3.10
2018-09-23T19:03:32.068Z,2.93
2018-09-23T19:06:00.950Z,3.00
2018-09-23T19:08:29.832Z,2.50
2018-09-23T19:10:58.675Z,2.80
2018-09-23T19:13:33.044Z,2.57
2018-09-23T19:16:07.148Z,2.30
2018-09-23T19:18:36.103Z,2.33
2018-09-23T19:21:04.987Z,2.60
2018-09-23T19:23:33.874Z,2.33
2018-09-23T19:26:02.812Z,2.90
2018-09-23T19:28:31.700Z,2.47
2018-09-23T19:31:00.591Z,2.33
2018-09-23T19:33:29.542Z,2.20
2018-09-23T19:35:58.445Z,2.87
2018-09-23T19:38:27.322Z,3.30
2018-09-23T19:40:56.208Z,2.60
2018-09-23T19:43:25.083Z,2.73
2018-09-23T19:45:53.976Z,3.37
2018-09-23T19:48:22.864Z,2.90
2018-09-23T19:50:51.810Z,4.30
2018-09-23T19:53:20.676Z,3.33
2018-09-23T19:55:49.811Z,3.30
2018-09-23T19:58:18.702Z,4.57
2018-09-23T20:00:47.561Z,2.93
2018-09-23T20:03:16.651Z,3.47
2018-09-23T20:05:45.724Z,2.67
2018-09-23T20:08:14.628Z,3.53
2018-09-23T20:10:43.602Z,3.20
2018-09-23T20:13:12.452Z,3.33
2018-09-23T20:15:41.402Z,3.53
2018-09-23T20:18:10.336Z,3.40
2018-09-23T20:20:39.196Z,3.90
2018-09-23T20:23:08.076Z,5.17
2018-09-23T20:25:36.988Z,4.87
2018-09-23T20:28:05.908Z,5.00
2018-09-23T20:30:34.781Z,4.97
2018-09-23T20:33:03.650Z,5.03
2018-09-23T20:35:32.501Z,5.27
2018-09-23T20:38:01.323Z,4.40
2018-09-23T20:40:30.212Z,5.33
2018-09-23T20:42:59.044Z,4.90
2018-09-23T20:45:27.968Z,4.73
2018-09-23T20:47:56.816Z,4.73
2018-09-23T20:50:25.676Z,6.93
2018-09-23T20:52:54.551Z,3.97
2018-09-23T20:55:23.673Z,3.97
2018-09-23T20:57:52.590Z,3.13
2018-09-23T21:00:21.492Z,3.73
2018-09-23T21:02:50.404Z,3.53
2018-09-23T21:05:19.254Z,6.37
2018-09-23T21:07:48.107Z,3.90
2018-09-23T21:10:16.975Z,2.77
2018-09-23T21:12:45.836Z,3.27
2018-09-23T21:15:14.777Z,3.53
2018-09-23T21:17:43.673Z,3.10
2018-09-23T21:20:12.558Z,3.00
2018-09-23T21:22:41.412Z,2.40
2018-09-23T21:25:10.305Z,2.27
2018-09-23T21:27:39.192Z,2.27
2018-09-23T21:30:08.110Z,2.50
2018-09-23T21:32:37.013Z,2.20
2018-09-23T21:35:06.331Z,2.30
2018-09-23T21:37:35.244Z,2.20
2018-09-23T21:40:04.114Z,2.03
2018-09-23T21:42:33.004Z,1.80
2018-09-23T21:45:01.852Z,1.57
2018-09-23T21:47:30.687Z,1.70
2018-09-23T21:49:59.535Z,2.27
2018-09-23T21:52:28.404Z,1.77
2018-09-23T21:54:57.326Z,2.00
2018-09-23T21:57:26.212Z,1.83
2018-09-23T21:59:55.109Z,2.03
2018-09-23T22:02:24.020Z,1.87
2018-09-23T22:04:53.030Z,1.87
2018-09-23T22:07:21.943Z,2.07
2018-09-23T22:09:50.858Z,2.10
2018-09-23T22:12:19.770Z,2.37
2018-09-23T22:14:48.666Z,2.50
2018-09-23T22:17:17.601Z,2.50
2018-09-23T22:19:46.490Z,2.60
2018-09-23T22:22:15.362Z,2.40
2018-09-23T22:24:44.291Z,2.83
2018-09-23T22:27:13.220Z,3.30
2018-09-23T22:29:42.154Z,3.30
2018-09-23T22:32:11.307Z,2.97
2018-09-23T22:34:40.201Z,3.70
2018-09-23T22:37:09.071Z,4.60
2018-09-23T22:39:38.010Z,4.30
2018-09-23T22:42:07.352Z,4.83
2018-09-23T22:44:36.211Z,3.90
2018-09-23T22:47:05.221Z,4.27
2018-09-23T22:49:35.166Z,4.83
2018-09-23T22:52:04.054Z,3.80
2018-09-23T22:54:33.053Z,4.10
2018-09-23T22:57:01.956Z,4.13
2018-09-23T22:59:30.854Z,3.60
2018-09-23T23:01:59.767Z,3.50
2018-09-23T23:04:28.787Z,4.00
2018-09-23T23:06:57.712Z,3.10
2018-09-23T23:09:26.614Z,3.27
2018-09-23T23:11:55.538Z,4.10
2018-09-23T23:14:24.434Z,3.03
2018-09-23T23:16:53.327Z,2.60
2018-09-23T23:19:22.376Z,3.63
2018-09-23T23:21:51.251Z,2.90
2018-09-23T23:24:20.140Z,3.40
2018-09-23T23:26:49.171Z,2.50
2018-09-23T23:29:18.392Z,2.90
2018-09-23T23:31:47.339Z,2.67
2018-09-23T23:34:16.183Z,2.90
2018-09-23T23:36:45.061Z,2.10
2018-09-23T23:39:13.973Z,2.43
2018-09-23T23:41:42.843Z,2.63
2018-09-23T23:44:11.744Z,2.80
2018-09-23T23:46:40.604Z,3.13
2018-09-23T23:49:09.520Z,2.63
2018-09-23T23:51:38.709Z,3.37
2018-09-23T23:54:07.795Z,2.90
2018-09-23T23:56:36.672Z,4.17
2018-09-23T23:59:05.663Z,2.93
